sensor_id;sensor_type;location;lat;lon;timestamp;P1;durP1;ratioP1;P2;durP2;ratioP2
73276;SDS011;61501;43.316;5.372;2022-08-19T00:01:08;13.43;;;8.20;;
73276;SDS011;61501;43.316;5.372;2022-08-19T00:03:34;9.63;;;8.00;;
73276;SDS011;61501;43.316;5.372;2022-08-19T00:06:00;6.80;;;5.65;;
73276;SDS011;61501;43.316;5.372;2022-08-19T00:08:26;7.60;;;5.35;;
73276;SDS011;61501;43.316;5.372;2022-08-19T00:10:52;4.53;;;3.80;;
73276;SDS011;61501;43.316;5.372;2022-08-19T00:13:18;4.22;;;3.33;;
73276;SDS011;61501;43.316;5.372;2022-08-19T00:15:44;4.60;;;3.13;;
73276;SDS011;61501;43.316;5.372;2022-08-19T00:18:10;4.15;;;3.28;;
73276;SDS011;61501;43.316;5.372;2022-08-19T00:20:36;5.72;;;2.65;;
73276;SDS011;61501;43.316;5.372;2022-08-19T00:23:05;3.75;;;2.60;;
73276;SDS011;61501;43.316;5.372;2022-08-19T00:25:31;3.53;;;2.38;;
73276;SDS011;61501;43.316;5.372;2022-08-19T00:27:58;3.70;;;2.20;;
73276;SDS011;61501;43.316;5.372;2022-08-19T00:30:24;3.38;;;2.17;;
73276;SDS011;61501;43.316;5.372;2022-08-19T00:32:52;8.02;;;2.00;;
73276;SDS011;61501;43.316;5.372;2022-08-19T00:35:20;3.53;;;1.80;;
73276;SDS011;61501;43.316;5.372;2022-08-19T00:37:47;5.40;;;2.03;;
73276;SDS011;61501;43.316;5.372;2022-08-19T00:40:13;4.60;;;1.73;;
73276;SDS011;61501;43.316;5.372;2022-08-19T00:42:40;2.78;;;1.73;;
73276;SDS011;61501;43.316;5.372;2022-08-19T00:45:13;3.33;;;1.95;;
73276;SDS011;61501;43.316;5.372;2022-08-19T00:47:40;3.28;;;2.00;;
73276;SDS011;61501;43.316;5.372;2022-08-19T00:50:06;3.30;;;1.88;;
73276;SDS011;61501;43.316;5.372;2022-08-19T00:52:34;3.47;;;1.92;;
73276;SDS011;61501;43.316;5.372;2022-08-19T00:55:03;2.22;;;1.63;;
73276;SDS011;61501;43.316;5.372;2022-08-19T00:57:34;2.10;;;1.70;;
73276;SDS011;61501;43.316;5.372;2022-08-19T01:00:01;3.25;;;1.65;;
73276;SDS011;61501;43.316;5.372;2022-08-19T01:02:28;2.38;;;1.73;;
73276;SDS011;61501;43.316;5.372;2022-08-19T01:04:54;3.88;;;2.00;;
73276;SDS011;61501;43.316;5.372;2022-08-19T01:07:21;3.95;;;1.90;;
73276;SDS011;61501;43.316;5.372;2022-08-19T01:09:47;3.40;;;1.88;;
73276;SDS011;61501;43.316;5.372;2022-08-19T01:12:13;4.28;;;1.85;;
73276;SDS011;61501;43.316;5.372;2022-08-19T01:14:39;3.63;;;2.00;;
73276;SDS011;61501;43.316;5.372;2022-08-19T01:17:07;3.05;;;1.60;;
73276;SDS011;61501;43.316;5.372;2022-08-19T01:19:35;3.25;;;2.00;;
73276;SDS011;61501;43.316;5.372;2022-08-19T01:22:04;3.78;;;1.90;;
73276;SDS011;61501;43.316;5.372;2022-08-19T01:24:31;2.13;;;1.73;;
73276;SDS011;61501;43.316;5.372;2022-08-19T01:26:57;2.80;;;1.90;;
73276;SDS011;61501;43.316;5.372;2022-08-19T01:29:23;3.88;;;1.67;;
73276;SDS011;61501;43.316;5.372;2022-08-19T01:31:49;2.65;;;1.75;;
73276;SDS011;61501;43.316;5.372;2022-08-19T01:34:17;2.45;;;1.83;;
73276;SDS011;61501;43.316;5.372;2022-08-19T01:36:44;3.90;;;1.70;;
73276;SDS011;61501;43.316;5.372;2022-08-19T01:39:13;4.57;;;1.73;;
73276;SDS011;61501;43.316;5.372;2022-08-19T01:41:40;1.90;;;1.55;;
73276;SDS011;61501;43.316;5.372;2022-08-19T01:44:07;3.95;;;1.92;;
73276;SDS011;61501;43.316;5.372;2022-08-19T01:46:33;4.72;;;1.88;;
73276;SDS011;61501;43.316;5.372;2022-08-19T01:48:59;5.55;;;1.80;;
73276;SDS011;61501;43.316;5.372;2022-08-19T01:51:26;2.65;;;1.67;;
73276;SDS011;61501;43.316;5.372;2022-08-19T01:53:53;3.65;;;2.13;;
73276;SDS011;61501;43.316;5.372;2022-08-19T01:56:19;2.13;;;1.67;;
73276;SDS011;61501;43.316;5.372;2022-08-19T01:58:53;2.38;;;1.70;;
73276;SDS011;61501;43.316;5.372;2022-08-19T02:01:21;3.55;;;1.65;;
73276;SDS011;61501;43.316;5.372;2022-08-19T02:03:47;2.75;;;1.90;;
73276;SDS011;61501;43.316;5.372;2022-08-19T02:06:13;3.22;;;1.73;;
73276;SDS011;61501;43.316;5.372;2022-08-19T02:08:42;3.72;;;1.73;;
73276;SDS011;61501;43.316;5.372;2022-08-19T02:11:17;2.47;;;1.80;;
73276;SDS011;61501;43.316;5.372;2022-08-19T02:13:43;1.92;;;1.73;;
73276;SDS011;61501;43.316;5.372;2022-08-19T02:16:09;2.80;;;2.00;;
73276;SDS011;61501;43.316;5.372;2022-08-19T02:18:35;3.95;;;1.75;;
73276;SDS011;61501;43.316;5.372;2022-08-19T02:21:01;2.60;;;2.00;;
73276;SDS011;61501;43.316;5.372;2022-08-19T02:23:27;2.10;;;1.70;;
73276;SDS011;61501;43.316;5.372;2022-08-19T02:25:53;2.80;;;1.60;;
73276;SDS011;61501;43.316;5.372;2022-08-19T02:28:19;4.03;;;1.73;;
73276;SDS011;61501;43.316;5.372;2022-08-19T02:30:46;7.68;;;1.80;;
73276;SDS011;61501;43.316;5.372;2022-08-19T02:33:12;2.70;;;2.00;;
73276;SDS011;61501;43.316;5.372;2022-08-19T02:35:40;2.30;;;1.77;;
73276;SDS011;61501;43.316;5.372;2022-08-19T02:38:07;6.03;;;2.00;;
73276;SDS011;61501;43.316;5.372;2022-08-19T02:40:52;3.78;;;1.60;;
73276;SDS011;61501;43.316;5.372;2022-08-19T02:43:19;2.95;;;1.60;;
73276;SDS011;61501;43.316;5.372;2022-08-19T02:45:45;3.17;;;1.50;;
73276;SDS011;61501;43.316;5.372;2022-08-19T02:48:13;2.88;;;1.75;;
73276;SDS011;61501;43.316;5.372;2022-08-19T02:50:39;3.63;;;2.25;;
73276;SDS011;61501;43.316;5.372;2022-08-19T02:53:06;2.88;;;1.73;;
73276;SDS011;61501;43.316;5.372;2022-08-19T02:55:33;4.60;;;2.17;;
73276;SDS011;61501;43.316;5.372;2022-08-19T02:57:59;2.63;;;1.50;;
73276;SDS011;61501;43.316;5.372;2022-08-19T03:00:26;3.80;;;1.60;;
73276;SDS011;61501;43.316;5.372;2022-08-19T03:02:52;4.20;;;1.80;;
73276;SDS011;61501;43.316;5.372;2022-08-19T03:05:18;2.65;;;1.83;;
73276;SDS011;61501;43.316;5.372;2022-08-19T03:07:44;2.45;;;1.90;;
73276;SDS011;61501;43.316;5.372;2022-08-19T03:10:12;3.85;;;1.90;;
73276;SDS011;61501;43.316;5.372;2022-08-19T03:12:38;2.78;;;2.00;;
73276;SDS011;61501;43.316;5.372;2022-08-19T03:15:05;4.10;;;2.05;;
73276;SDS011;61501;43.316;5.372;2022-08-19T03:17:32;2.50;;;1.92;;
73276;SDS011;61501;43.316;5.372;2022-08-19T03:19:58;2.60;;;1.70;;
73276;SDS011;61501;43.316;5.372;2022-08-19T03:22:24;2.67;;;1.70;;
73276;SDS011;61501;43.316;5.372;2022-08-19T03:24:50;3.00;;;2.00;;
73276;SDS011;61501;43.316;5.372;2022-08-19T03:27:16;3.05;;;1.95;;
73276;SDS011;61501;43.316;5.372;2022-08-19T03:29:42;3.25;;;1.90;;
73276;SDS011;61501;43.316;5.372;2022-08-19T03:32:09;2.58;;;2.10;;
73276;SDS011;61501;43.316;5.372;2022-08-19T03:34:36;2.25;;;2.00;;
73276;SDS011;61501;43.316;5.372;2022-08-19T03:37:04;2.72;;;2.10;;
73276;SDS011;61501;43.316;5.372;2022-08-19T03:39:30;2.25;;;2.05;;
73276;SDS011;61501;43.316;5.372;2022-08-19T03:41:57;2.67;;;2.08;;
73276;SDS011;61501;43.316;5.372;2022-08-19T03:44:27;2.88;;;2.10;;
73276;SDS011;61501;43.316;5.372;2022-08-19T03:46:54;4.70;;;2.30;;
73276;SDS011;61501;43.316;5.372;2022-08-19T03:49:21;3.53;;;2.55;;
73276;SDS011;61501;43.316;5.372;2022-08-19T03:51:47;2.90;;;2.47;;
73276;SDS011;61501;43.316;5.372;2022-08-19T03:54:16;4.60;;;2.67;;
73276;SDS011;61501;43.316;5.372;2022-08-19T03:56:43;3.38;;;2.55;;
73276;SDS011;61501;43.316;5.372;2022-08-19T03:59:11;3.67;;;2.90;;
73276;SDS011;61501;43.316;5.372;2022-08-19T04:01:38;3.25;;;2.63;;
73276;SDS011;61501;43.316;5.372;2022-08-19T04:04:04;3.00;;;2.60;;
73276;SDS011;61501;43.316;5.372;2022-08-19T04:06:32;2.80;;;2.53;;
73276;SDS011;61501;43.316;5.372;2022-08-19T04:08:59;3.75;;;2.72;;
73276;SDS011;61501;43.316;5.372;2022-08-19T04:11:29;4.07;;;2.60;;
73276;SDS011;61501;43.316;5.372;2022-08-19T04:13:56;5.57;;;2.60;;
73276;SDS011;61501;43.316;5.372;2022-08-19T04:16:24;3.65;;;2.60;;
73276;SDS011;61501;43.316;5.372;2022-08-19T04:18:53;3.22;;;2.90;;
73276;SDS011;61501;43.316;5.372;2022-08-19T04:21:22;5.38;;;3.03;;
73276;SDS011;61501;43.316;5.372;2022-08-19T04:23:48;3.67;;;2.78;;
73276;SDS011;61501;43.316;5.372;2022-08-19T04:26:18;3.72;;;2.60;;
73276;SDS011;61501;43.316;5.372;2022-08-19T04:28:44;4.45;;;2.83;;
73276;SDS011;61501;43.316;5.372;2022-08-19T04:31:14;6.15;;;2.33;;
73276;SDS011;61501;43.316;5.372;2022-08-19T04:33:40;3.00;;;2.45;;
73276;SDS011;61501;43.316;5.372;2022-08-19T04:36:06;3.10;;;2.50;;
73276;SDS011;61501;43.316;5.372;2022-08-19T04:38:32;3.65;;;2.40;;
73276;SDS011;61501;43.316;5.372;2022-08-19T04:40:59;3.22;;;2.40;;
73276;SDS011;61501;43.316;5.372;2022-08-19T04:43:44;2.30;;;2.10;;
73276;SDS011;61501;43.316;5.372;2022-08-19T04:46:13;4.43;;;2.30;;
73276;SDS011;61501;43.316;5.372;2022-08-19T04:48:39;3.08;;;2.50;;
73276;SDS011;61501;43.316;5.372;2022-08-19T04:51:07;4.82;;;2.20;;
73276;SDS011;61501;43.316;5.372;2022-08-19T04:53:34;4.53;;;2.40;;
73276;SDS011;61501;43.316;5.372;2022-08-19T04:56:03;2.70;;;2.13;;
73276;SDS011;61501;43.316;5.372;2022-08-19T04:58:29;4.47;;;3.00;;
73276;SDS011;61501;43.316;5.372;2022-08-19T05:00:55;3.33;;;2.17;;
73276;SDS011;61501;43.316;5.372;2022-08-19T05:03:24;3.20;;;2.20;;
73276;SDS011;61501;43.316;5.372;2022-08-19T05:05:50;4.70;;;2.10;;
73276;SDS011;61501;43.316;5.372;2022-08-19T05:08:18;3.30;;;2.00;;
73276;SDS011;61501;43.316;5.372;2022-08-19T05:10:45;4.00;;;2.40;;
73276;SDS011;61501;43.316;5.372;2022-08-19T05:13:12;4.25;;;2.10;;
73276;SDS011;61501;43.316;5.372;2022-08-19T05:15:38;3.45;;;2.53;;
73276;SDS011;61501;43.316;5.372;2022-08-19T05:18:04;4.07;;;2.50;;
73276;SDS011;61501;43.316;5.372;2022-08-19T05:20:48;5.20;;;2.40;;
73276;SDS011;61501;43.316;5.372;2022-08-19T05:23:33;3.00;;;2.20;;
73276;SDS011;61501;43.316;5.372;2022-08-19T05:25:59;2.20;;;1.98;;
73276;SDS011;61501;43.316;5.372;2022-08-19T05:28:25;4.70;;;2.40;;
73276;SDS011;61501;43.316;5.372;2022-08-19T05:30:51;4.00;;;2.58;;
73276;SDS011;61501;43.316;5.372;2022-08-19T05:33:20;7.38;;;2.65;;
73276;SDS011;61501;43.316;5.372;2022-08-19T05:35:46;4.63;;;2.50;;
73276;SDS011;61501;43.316;5.372;2022-08-19T05:38:14;3.28;;;2.20;;
73276;SDS011;61501;43.316;5.372;2022-08-19T05:40:40;4.03;;;2.75;;
73276;SDS011;61501;43.316;5.372;2022-08-19T05:43:08;2.33;;;2.10;;
73276;SDS011;61501;43.316;5.372;2022-08-19T05:45:38;2.55;;;2.15;;
73276;SDS011;61501;43.316;5.372;2022-08-19T05:48:04;3.78;;;1.92;;
73276;SDS011;61501;43.316;5.372;2022-08-19T05:50:30;4.47;;;2.50;;
73276;SDS011;61501;43.316;5.372;2022-08-19T05:52:56;4.03;;;1.98;;
73276;SDS011;61501;43.316;5.372;2022-08-19T05:55:22;13.55;;;3.20;;
73276;SDS011;61501;43.316;5.372;2022-08-19T05:57:48;4.65;;;2.15;;
73276;SDS011;61501;43.316;5.372;2022-08-19T06:00:15;3.05;;;1.90;;
73276;SDS011;61501;43.316;5.372;2022-08-19T06:02:41;2.55;;;1.95;;
73276;SDS011;61501;43.316;5.372;2022-08-19T06:05:07;4.43;;;1.90;;
73276;SDS011;61501;43.316;5.372;2022-08-19T06:07:37;4.07;;;2.38;;
73276;SDS011;61501;43.316;5.372;2022-08-19T06:10:04;3.20;;;2.28;;
73276;SDS011;61501;43.316;5.372;2022-08-19T06:12:31;2.22;;;2.03;;
73276;SDS011;61501;43.316;5.372;2022-08-19T06:14:59;6.15;;;2.20;;
73276;SDS011;61501;43.316;5.372;2022-08-19T06:17:26;3.83;;;2.20;;
73276;SDS011;61501;43.316;5.372;2022-08-19T06:19:52;6.72;;;2.47;;
73276;SDS011;61501;43.316;5.372;2022-08-19T06:22:18;4.25;;;2.20;;
73276;SDS011;61501;43.316;5.372;2022-08-19T06:24:44;4.32;;;1.90;;
73276;SDS011;61501;43.316;5.372;2022-08-19T06:27:10;4.35;;;2.13;;
73276;SDS011;61501;43.316;5.372;2022-08-19T06:29:36;3.35;;;1.75;;
73276;SDS011;61501;43.316;5.372;2022-08-19T06:32:02;3.45;;;1.83;;
73276;SDS011;61501;43.316;5.372;2022-08-19T06:34:29;4.78;;;2.60;;
73276;SDS011;61501;43.316;5.372;2022-08-19T06:36:56;2.67;;;2.08;;
73276;SDS011;61501;43.316;5.372;2022-08-19T06:39:27;4.95;;;1.92;;
73276;SDS011;61501;43.316;5.372;2022-08-19T06:41:55;4.40;;;2.15;;
73276;SDS011;61501;43.316;5.372;2022-08-19T06:44:22;4.85;;;2.58;;
73276;SDS011;61501;43.316;5.372;2022-08-19T06:46:48;4.10;;;2.30;;
73276;SDS011;61501;43.316;5.372;2022-08-19T06:49:14;3.10;;;2.20;;
73276;SDS011;61501;43.316;5.372;2022-08-19T06:51:41;5.07;;;3.10;;
73276;SDS011;61501;43.316;5.372;2022-08-19T06:54:08;4.80;;;2.60;;
73276;SDS011;61501;43.316;5.372;2022-08-19T06:56:34;5.32;;;2.60;;
73276;SDS011;61501;43.316;5.372;2022-08-19T06:59:02;5.82;;;2.53;;
73276;SDS011;61501;43.316;5.372;2022-08-19T07:01:28;5.47;;;2.40;;
73276;SDS011;61501;43.316;5.372;2022-08-19T07:03:54;5.95;;;2.60;;
73276;SDS011;61501;43.316;5.372;2022-08-19T07:06:21;4.22;;;2.40;;
73276;SDS011;61501;43.316;5.372;2022-08-19T07:08:47;7.50;;;2.75;;
73276;SDS011;61501;43.316;5.372;2022-08-19T07:11:16;4.32;;;2.30;;
73276;SDS011;61501;43.316;5.372;2022-08-19T07:13:46;3.92;;;2.60;;
73276;SDS011;61501;43.316;5.372;2022-08-19T07:16:14;3.00;;;2.65;;
73276;SDS011;61501;43.316;5.372;2022-08-19T07:18:40;5.65;;;2.53;;
73276;SDS011;61501;43.316;5.372;2022-08-19T07:21:11;3.67;;;2.33;;
73276;SDS011;61501;43.316;5.372;2022-08-19T07:23:38;4.35;;;2.40;;
73276;SDS011;61501;43.316;5.372;2022-08-19T07:26:08;3.38;;;2.65;;
73276;SDS011;61501;43.316;5.372;2022-08-19T07:28:34;9.77;;;2.33;;
73276;SDS011;61501;43.316;5.372;2022-08-19T07:31:04;4.88;;;2.72;;
73276;SDS011;61501;43.316;5.372;2022-08-19T07:33:30;5.30;;;2.65;;
73276;SDS011;61501;43.316;5.372;2022-08-19T07:35:57;5.32;;;2.50;;
73276;SDS011;61501;43.316;5.372;2022-08-19T07:38:23;4.80;;;2.88;;
73276;SDS011;61501;43.316;5.372;2022-08-19T07:40:49;3.95;;;2.38;;
73276;SDS011;61501;43.316;5.372;2022-08-19T07:43:16;5.57;;;3.13;;
73276;SDS011;61501;43.316;5.372;2022-08-19T07:45:47;5.63;;;2.80;;
73276;SDS011;61501;43.316;5.372;2022-08-19T07:48:13;5.38;;;2.60;;
73276;SDS011;61501;43.316;5.372;2022-08-19T07:50:40;8.15;;;2.83;;
73276;SDS011;61501;43.316;5.372;2022-08-19T07:53:06;6.82;;;3.10;;
73276;SDS011;61501;43.316;5.372;2022-08-19T07:55:32;6.45;;;2.95;;
73276;SDS011;61501;43.316;5.372;2022-08-19T07:57:59;6.82;;;3.17;;
73276;SDS011;61501;43.316;5.372;2022-08-19T08:00:25;4.82;;;2.95;;
73276;SDS011;61501;43.316;5.372;2022-08-19T08:02:54;5.65;;;2.90;;
73276;SDS011;61501;43.316;5.372;2022-08-19T08:05:20;4.85;;;3.15;;
73276;SDS011;61501;43.316;5.372;2022-08-19T08:08:05;4.00;;;3.00;;
73276;SDS011;61501;43.316;5.372;2022-08-19T08:10:49;5.70;;;3.10;;
73276;SDS011;61501;43.316;5.372;2022-08-19T08:13:15;4.90;;;3.00;;
73276;SDS011;61501;43.316;5.372;2022-08-19T08:15:41;10.73;;;3.10;;
73276;SDS011;61501;43.316;5.372;2022-08-19T08:18:10;5.55;;;3.50;;
73276;SDS011;61501;43.316;5.372;2022-08-19T08:20:36;3.97;;;3.40;;
73276;SDS011;61501;43.316;5.372;2022-08-19T08:23:02;5.45;;;3.10;;
73276;SDS011;61501;43.316;5.372;2022-08-19T08:25:47;4.82;;;3.22;;
73276;SDS011;61501;43.316;5.372;2022-08-19T08:28:14;5.47;;;3.47;;
73276;SDS011;61501;43.316;5.372;2022-08-19T08:30:40;4.50;;;3.08;;
73276;SDS011;61501;43.316;5.372;2022-08-19T08:33:08;8.27;;;3.60;;
73276;SDS011;61501;43.316;5.372;2022-08-19T08:35:34;5.72;;;3.20;;
73276;SDS011;61501;43.316;5.372;2022-08-19T08:38:01;9.23;;;3.78;;
73276;SDS011;61501;43.316;5.372;2022-08-19T08:43:38;5.85;;;3.35;;
73276;SDS011;61501;43.316;5.372;2022-08-19T08:46:07;5.88;;;3.95;;
73276;SDS011;61501;43.316;5.372;2022-08-19T08:51:01;9.60;;;3.80;;
73276;SDS011;61501;43.316;5.372;2022-08-19T08:53:29;14.93;;;3.78;;
73276;SDS011;61501;43.316;5.372;2022-08-19T08:55:56;9.35;;;3.47;;
73276;SDS011;61501;43.316;5.372;2022-08-19T08:58:28;6.57;;;3.75;;
73276;SDS011;61501;43.316;5.372;2022-08-19T09:00:55;7.68;;;3.40;;
73276;SDS011;61501;43.316;5.372;2022-08-19T09:03:24;4.75;;;3.40;;
73276;SDS011;61501;43.316;5.372;2022-08-19T09:08:27;6.53;;;3.88;;
73276;SDS011;61501;43.316;5.372;2022-08-19T09:10:55;5.07;;;3.80;;
73276;SDS011;61501;43.316;5.372;2022-08-19T09:15:50;4.80;;;3.40;;
73276;SDS011;61501;43.316;5.372;2022-08-19T09:18:18;7.93;;;3.53;;
73276;SDS011;61501;43.316;5.372;2022-08-19T09:20:44;5.35;;;3.58;;
73276;SDS011;61501;43.316;5.372;2022-08-19T09:23:11;4.95;;;3.53;;
73276;SDS011;61501;43.316;5.372;2022-08-19T09:25:37;8.25;;;3.88;;
73276;SDS011;61501;43.316;5.372;2022-08-19T09:28:05;8.63;;;3.55;;
73276;SDS011;61501;43.316;5.372;2022-08-19T09:30:34;3.92;;;3.08;;
73276;SDS011;61501;43.316;5.372;2022-08-19T09:35:31;6.07;;;3.65;;
73276;SDS011;61501;43.316;5.372;2022-08-19T09:37:58;6.05;;;3.53;;
73276;SDS011;61501;43.316;5.372;2022-08-19T09:40:24;8.88;;;3.45;;
73276;SDS011;61501;43.316;5.372;2022-08-19T09:42:50;5.00;;;3.10;;
73276;SDS011;61501;43.316;5.372;2022-08-19T09:45:18;8.48;;;3.45;;
73276;SDS011;61501;43.316;5.372;2022-08-19T09:47:46;6.70;;;3.45;;
73276;SDS011;61501;43.316;5.372;2022-08-19T09:50:13;9.70;;;3.13;;
73276;SDS011;61501;43.316;5.372;2022-08-19T09:52:39;9.90;;;3.53;;
73276;SDS011;61501;43.316;5.372;2022-08-19T09:55:07;4.38;;;3.00;;
73276;SDS011;61501;43.316;5.372;2022-08-19T09:57:34;5.13;;;3.42;;
73276;SDS011;61501;43.316;5.372;2022-08-19T10:00:00;10.98;;;4.20;;
73276;SDS011;61501;43.316;5.372;2022-08-19T10:02:28;4.57;;;3.13;;
73276;SDS011;61501;43.316;5.372;2022-08-19T10:04:54;5.15;;;3.63;;
73276;SDS011;61501;43.316;5.372;2022-08-19T10:07:39;5.85;;;3.20;;
73276;SDS011;61501;43.316;5.372;2022-08-19T10:10:05;6.40;;;3.40;;
73276;SDS011;61501;43.316;5.372;2022-08-19T10:12:32;4.30;;;3.42;;
73276;SDS011;61501;43.316;5.372;2022-08-19T10:14:58;7.95;;;3.47;;
73276;SDS011;61501;43.316;5.372;2022-08-19T10:17:24;4.82;;;3.13;;
73276;SDS011;61501;43.316;5.372;2022-08-19T10:19:51;9.65;;;3.60;;
73276;SDS011;61501;43.316;5.372;2022-08-19T10:22:17;5.07;;;3.38;;
73276;SDS011;61501;43.316;5.372;2022-08-19T10:24:45;5.47;;;3.00;;
73276;SDS011;61501;43.316;5.372;2022-08-19T10:27:11;7.47;;;2.90;;
73276;SDS011;61501;43.316;5.372;2022-08-19T10:29:39;3.83;;;3.40;;
73276;SDS011;61501;43.316;5.372;2022-08-19T10:32:06;7.07;;;3.35;;
73276;SDS011;61501;43.316;5.372;2022-08-19T10:34:33;5.22;;;3.40;;
73276;SDS011;61501;43.316;5.372;2022-08-19T10:37:00;6.65;;;3.38;;
73276;SDS011;61501;43.316;5.372;2022-08-19T10:39:26;7.93;;;3.15;;
73276;SDS011;61501;43.316;5.372;2022-08-19T10:41:54;9.05;;;3.53;;
73276;SDS011;61501;43.316;5.372;2022-08-19T10:44:21;7.47;;;2.97;;
73276;SDS011;61501;43.316;5.372;2022-08-19T10:46:48;5.13;;;3.10;;
73276;SDS011;61501;43.316;5.372;2022-08-19T10:49:14;5.15;;;3.35;;
73276;SDS011;61501;43.316;5.372;2022-08-19T10:51:41;6.45;;;3.05;;
73276;SDS011;61501;43.316;5.372;2022-08-19T10:54:26;5.18;;;2.97;;
73276;SDS011;61501;43.316;5.372;2022-08-19T10:57:12;3.97;;;2.65;;
73276;SDS011;61501;43.316;5.372;2022-08-19T10:59:38;3.53;;;2.45;;
73276;SDS011;61501;43.316;5.372;2022-08-19T11:02:05;5.15;;;2.70;;
73276;SDS011;61501;43.316;5.372;2022-08-19T11:04:31;6.57;;;3.65;;
73276;SDS011;61501;43.316;5.372;2022-08-19T11:06:58;6.85;;;2.90;;
73276;SDS011;61501;43.316;5.372;2022-08-19T11:09:25;3.28;;;2.60;;
73276;SDS011;61501;43.316;5.372;2022-08-19T11:11:54;5.80;;;3.40;;
73276;SDS011;61501;43.316;5.372;2022-08-19T11:14:21;5.50;;;2.90;;
73276;SDS011;61501;43.316;5.372;2022-08-19T11:16:50;5.78;;;3.45;;
73276;SDS011;61501;43.316;5.372;2022-08-19T11:19:18;4.50;;;2.80;;
73276;SDS011;61501;43.316;5.372;2022-08-19T11:21:46;5.45;;;2.90;;
73276;SDS011;61501;43.316;5.372;2022-08-19T11:24:15;6.00;;;2.90;;
73276;SDS011;61501;43.316;5.372;2022-08-19T11:26:41;6.72;;;2.75;;
73276;SDS011;61501;43.316;5.372;2022-08-19T11:29:09;4.72;;;3.03;;
73276;SDS011;61501;43.316;5.372;2022-08-19T11:31:39;4.80;;;2.80;;
73276;SDS011;61501;43.316;5.372;2022-08-19T11:34:07;4.35;;;2.50;;
73276;SDS011;61501;43.316;5.372;2022-08-19T11:36:34;5.00;;;2.80;;
73276;SDS011;61501;43.316;5.372;2022-08-19T11:39:03;9.40;;;2.90;;
73276;SDS011;61501;43.316;5.372;2022-08-19T11:41:29;4.40;;;2.80;;
73276;SDS011;61501;43.316;5.372;2022-08-19T11:43:55;8.23;;;3.28;;
73276;SDS011;61501;43.316;5.372;2022-08-19T11:46:22;3.75;;;3.08;;
73276;SDS011;61501;43.316;5.372;2022-08-19T11:48:48;5.13;;;3.40;;
73276;SDS011;61501;43.316;5.372;2022-08-19T11:51:16;4.32;;;3.22;;
73276;SDS011;61501;43.316;5.372;2022-08-19T11:53:43;5.07;;;2.90;;
73276;SDS011;61501;43.316;5.372;2022-08-19T11:56:10;4.80;;;3.50;;
73276;SDS011;61501;43.316;5.372;2022-08-19T11:58:37;5.22;;;3.60;;
73276;SDS011;61501;43.316;5.372;2022-08-19T12:01:07;4.97;;;2.90;;
73276;SDS011;61501;43.316;5.372;2022-08-19T12:03:33;3.40;;;2.80;;
73276;SDS011;61501;43.316;5.372;2022-08-19T12:06:03;4.57;;;3.38;;
73276;SDS011;61501;43.316;5.372;2022-08-19T12:08:29;5.80;;;3.20;;
73276;SDS011;61501;43.316;5.372;2022-08-19T12:10:55;7.25;;;3.20;;
73276;SDS011;61501;43.316;5.372;2022-08-19T12:13:21;5.18;;;3.40;;
73276;SDS011;61501;43.316;5.372;2022-08-19T12:15:47;8.43;;;3.80;;
73276;SDS011;61501;43.316;5.372;2022-08-19T12:18:13;5.80;;;3.70;;
73276;SDS011;61501;43.316;5.372;2022-08-19T12:20:40;4.45;;;3.40;;
73276;SDS011;61501;43.316;5.372;2022-08-19T12:23:07;5.60;;;3.30;;
73276;SDS011;61501;43.316;5.372;2022-08-19T12:25:34;3.72;;;3.22;;
73276;SDS011;61501;43.316;5.372;2022-08-19T12:28:00;6.07;;;3.70;;
73276;SDS011;61501;43.316;5.372;2022-08-19T12:30:26;4.32;;;3.25;;
73276;SDS011;61501;43.316;5.372;2022-08-19T12:32:52;5.75;;;3.72;;
73276;SDS011;61501;43.316;5.372;2022-08-19T12:35:19;6.13;;;3.53;;
73276;SDS011;61501;43.316;5.372;2022-08-19T12:37:45;6.30;;;3.38;;
73276;SDS011;61501;43.316;5.372;2022-08-19T12:40:12;7.82;;;3.40;;
73276;SDS011;61501;43.316;5.372;2022-08-19T12:42:39;8.00;;;3.58;;
73276;SDS011;61501;43.316;5.372;2022-08-19T12:45:09;4.15;;;3.75;;
73276;SDS011;61501;43.316;5.372;2022-08-19T12:47:35;7.68;;;3.65;;
73276;SDS011;61501;43.316;5.372;2022-08-19T12:50:01;4.22;;;3.45;;
73276;SDS011;61501;43.316;5.372;2022-08-19T12:52:27;5.60;;;4.05;;
73276;SDS011;61501;43.316;5.372;2022-08-19T12:54:55;7.25;;;4.10;;
73276;SDS011;61501;43.316;5.372;2022-08-19T12:57:23;4.70;;;3.70;;
73276;SDS011;61501;43.316;5.372;2022-08-19T12:59:51;6.70;;;3.97;;
73276;SDS011;61501;43.316;5.372;2022-08-19T13:02:18;7.10;;;4.15;;
73276;SDS011;61501;43.316;5.372;2022-08-19T13:04:44;5.88;;;3.75;;
73276;SDS011;61501;43.316;5.372;2022-08-19T13:07:10;5.18;;;3.67;;
73276;SDS011;61501;43.316;5.372;2022-08-19T13:09:36;7.35;;;4.00;;
73276;SDS011;61501;43.316;5.372;2022-08-19T13:12:06;6.10;;;4.40;;
73276;SDS011;61501;43.316;5.372;2022-08-19T13:14:37;8.50;;;4.00;;
73276;SDS011;61501;43.316;5.372;2022-08-19T13:17:03;5.22;;;3.95;;
73276;SDS011;61501;43.316;5.372;2022-08-19T13:19:29;5.53;;;4.78;;
73276;SDS011;61501;43.316;5.372;2022-08-19T13:21:56;4.90;;;4.15;;
73276;SDS011;61501;43.316;5.372;2022-08-19T13:24:22;10.57;;;4.35;;
73276;SDS011;61501;43.316;5.372;2022-08-19T13:26:48;5.15;;;4.65;;
73276;SDS011;61501;43.316;5.372;2022-08-19T13:29:14;5.63;;;3.90;;
73276;SDS011;61501;43.316;5.372;2022-08-19T13:31:59;4.55;;;4.00;;
73276;SDS011;61501;43.316;5.372;2022-08-19T13:34:44;5.38;;;4.00;;
73276;SDS011;61501;43.316;5.372;2022-08-19T13:37:11;5.22;;;4.05;;
73276;SDS011;61501;43.316;5.372;2022-08-19T13:39:37;6.90;;;4.50;;
73276;SDS011;61501;43.316;5.372;2022-08-19T13:42:03;10.43;;;4.60;;
73276;SDS011;61501;43.316;5.372;2022-08-19T13:44:30;4.88;;;4.00;;
73276;SDS011;61501;43.316;5.372;2022-08-19T13:47:03;4.93;;;4.43;;
73276;SDS011;61501;43.316;5.372;2022-08-19T13:49:34;5.05;;;4.38;;
73276;SDS011;61501;43.316;5.372;2022-08-19T13:52:01;5.82;;;4.63;;
73276;SDS011;61501;43.316;5.372;2022-08-19T13:54:27;5.47;;;4.60;;
73276;SDS011;61501;43.316;5.372;2022-08-19T13:56:53;5.00;;;4.60;;
73276;SDS011;61501;43.316;5.372;2022-08-19T13:59:19;4.57;;;4.13;;
73276;SDS011;61501;43.316;5.372;2022-08-19T14:01:45;4.90;;;4.40;;
73276;SDS011;61501;43.316;5.372;2022-08-19T14:04:11;5.95;;;4.22;;
73276;SDS011;61501;43.316;5.372;2022-08-19T14:06:37;6.55;;;4.22;;
73276;SDS011;61501;43.316;5.372;2022-08-19T14:09:03;6.63;;;4.47;;
73276;SDS011;61501;43.316;5.372;2022-08-19T14:11:30;6.57;;;4.25;;
73276;SDS011;61501;43.316;5.372;2022-08-19T14:13:56;6.20;;;4.30;;
73276;SDS011;61501;43.316;5.372;2022-08-19T14:16:22;4.38;;;3.97;;
73276;SDS011;61501;43.316;5.372;2022-08-19T14:18:50;9.07;;;4.40;;
73276;SDS011;61501;43.316;5.372;2022-08-19T14:21:17;6.80;;;4.20;;
73276;SDS011;61501;43.316;5.372;2022-08-19T14:23:45;8.27;;;4.40;;
73276;SDS011;61501;43.316;5.372;2022-08-19T14:26:12;4.80;;;4.10;;
73276;SDS011;61501;43.316;5.372;2022-08-19T14:28:39;6.00;;;4.13;;
73276;SDS011;61501;43.316;5.372;2022-08-19T14:31:07;8.52;;;4.47;;
73276;SDS011;61501;43.316;5.372;2022-08-19T14:33:33;6.93;;;4.95;;
73276;SDS011;61501;43.316;5.372;2022-08-19T14:35:59;5.47;;;4.47;;
73276;SDS011;61501;43.316;5.372;2022-08-19T14:38:25;6.95;;;4.40;;
73276;SDS011;61501;43.316;5.372;2022-08-19T14:40:51;5.60;;;5.00;;
73276;SDS011;61501;43.316;5.372;2022-08-19T14:43:17;4.90;;;4.43;;
73276;SDS011;61501;43.316;5.372;2022-08-19T14:45:44;6.05;;;4.63;;
73276;SDS011;61501;43.316;5.372;2022-08-19T14:48:10;5.10;;;4.18;;
73276;SDS011;61501;43.316;5.372;2022-08-19T14:50:37;9.57;;;4.50;;
73276;SDS011;61501;43.316;5.372;2022-08-19T14:53:04;11.60;;;4.30;;
73276;SDS011;61501;43.316;5.372;2022-08-19T14:55:31;7.03;;;4.10;;
73276;SDS011;61501;43.316;5.372;2022-08-19T14:57:57;10.98;;;4.50;;
73276;SDS011;61501;43.316;5.372;2022-08-19T15:00:23;5.10;;;4.35;;
73276;SDS011;61501;43.316;5.372;2022-08-19T15:02:49;10.38;;;4.38;;